Time;durP1;ratioP1;P1;durP2;ratioP2;P2;SDS_P1;SDS_P2;PMS_P1;PMS_P2;Temp;Humidity;BMP_temperature;BMP_pressure;BME280_temperature;BME280_humidity;BME280_pressure;Samples;Min_cycle;Max_cycle;Signal;HPM_P1;HPM_P2
2021/03/29 00:00:37;;;;;;;5.30;2.67;;;;;;;9.93;49.20;100199.38;5110546;28;40280;-74
2021/03/29 00:03:04;;;;;;;5.10;2.90;;;;;;;9.85;49.45;100196.19;5094758;28;41624;-74
2021/03/29 00:05:33;;;;;;;4.90;2.43;;;;;;;9.82;49.23;100193.66;5078077;28;42090;-74
2021/03/29 00:08:05;;;;;;;4.80;2.83;;;;;;;9.74;49.63;100188.66;5094050;28;42718;-74
2021/03/29 00:10:34;;;;;;;4.23;2.67;;;;;;;9.75;49.28;100200.09;5112222;28;39793;-74
2021/03/29 00:13:02;;;;;;;6.00;2.60;;;;;;;9.70;49.90;100203.78;5093438;28;42444;-74
2021/03/29 00:15:35;;;;;;;4.20;2.00;;;;;;;9.56;50.42;100171.69;5112246;28;43587;-74
2021/03/29 00:18:05;;;;;;;4.67;2.03;;;;;;;9.66;50.63;100199.50;5078301;28;41540;-73
2021/03/29 00:20:33;;;;;;;5.40;2.10;;;;;;;9.65;50.70;100207.50;5111885;28;41851;-73
2021/03/29 00:23:01;;;;;;;4.60;2.30;;;;;;;9.60;51.06;100202.41;5111632;28;41716;-74
2021/03/29 00:25:30;;;;;;;6.03;2.40;;;;;;;9.57;51.09;100213.06;5093386;28;43298;-75
2021/03/29 00:27:59;;;;;;;3.93;2.13;;;;;;;9.54;51.38;100207.91;5077784;28;41456;-74
2021/03/29 00:30:30;;;;;;;4.20;2.33;;;;;;;9.47;51.03;100213.47;5077707;28;39016;-74
2021/03/29 00:32:58;;;;;;;2.97;2.07;;;;;;;9.46;51.26;100215.25;5093825;28;40644;-74
2021/03/29 00:35:27;;;;;;;4.20;2.07;;;;;;;9.42;51.13;100216.28;5076967;28;41797;-74
2021/03/29 00:37:57;;;;;;;4.23;2.07;;;;;;;9.32;50.84;100212.25;5077433;28;42267;-74
2021/03/29 00:40:26;;;;;;;4.03;2.03;;;;;;;9.31;50.52;100218.44;5112042;28;40686;-73
2021/03/29 00:42:57;;;;;;;3.63;2.00;;;;;;;9.26;50.83;100215.97;5094561;28;42264;-76
2021/03/29 00:45:26;;;;;;;5.13;2.20;;;;;;;9.24;50.85;100225.75;5111098;28;42720;-74
2021/03/29 00:47:53;;;;;;;4.20;2.00;;;;;;;9.20;51.30;100223.25;5111489;28;42948;-75
2021/03/29 00:50:32;;;;;;;4.20;1.87;;;;;;;9.17;52.02;100228.63;5094089;28;39547;-75
2021/03/29 00:53:04;;;;;;;4.10;2.00;;;;;;;9.12;51.72;100230.59;5092823;28;42308;-75
2021/03/29 00:55:31;;;;;;;4.13;2.10;;;;;;;9.04;51.34;100237.91;5094189;28;41738;-74
2021/03/29 00:58:01;;;;;;;4.13;1.83;;;;;;;9.02;51.33;100237.97;5094259;28;42193;-75
2021/03/29 01:00:35;;;;;;;4.67;1.97;;;;;;;8.98;52.63;100229.28;5111700;28;40146;-75
2021/03/29 01:03:08;;;;;;;3.90;2.00;;;;;;;8.93;51.92;100231.22;5093283;28;41842;-75
2021/03/29 01:05:35;;;;;;;4.83;1.57;;;;;;;8.90;52.43;100226.03;5093814;28;41776;-75
2021/03/29 01:08:03;;;;;;;3.43;2.17;;;;;;;8.71;52.54;100193.22;5106388;28;42342;-74
2021/03/29 01:10:30;;;;;;;4.33;2.47;;;;;;;8.85;52.42;100227.09;5090253;28;40308;-74
2021/03/29 01:13:04;;;;;;;5.83;2.23;;;;;;;8.72;52.47;100205.53;5111095;28;42233;-74
2021/03/29 01:15:34;;;;;;;4.87;2.37;;;;;;;8.79;53.69;100214.09;5077079;28;41804;-75
2021/03/29 01:18:02;;;;;;;4.80;2.00;;;;;;;8.77;53.26;100216.81;5110982;28;42304;-75
2021/03/29 01:20:41;;;;;;;4.93;2.20;;;;;;;8.68;53.20;100206.53;5076846;28;40218;-75
2021/03/29 01:23:09;;;;;;;4.07;1.77;;;;;;;8.65;52.93;100219.84;5094042;28;41607;-75
2021/03/29 01:25:43;;;;;;;6.47;2.10;;;;;;;8.63;52.92;100227.81;5092489;28;42736;-75
2021/03/29 01:28:16;;;;;;;5.40;2.13;;;;;;;8.61;53.05;100234.06;5076805;28;41148;-74
2021/03/29 01:30:44;;;;;;;5.43;2.37;;;;;;;8.54;53.25;100227.25;5093904;28;41215;-74
2021/03/29 01:33:12;;;;;;;3.03;1.67;;;;;;;8.52;53.20;100240.53;5126758;27;42745;-74
2021/03/29 01:35:44;;;;;;;6.33;1.90;;;;;;;8.50;52.91;100236.19;5109504;28;43510;-75
2021/03/29 01:38:12;;;;;;;5.43;2.03;;;;;;;8.43;52.92;100239.91;5111676;28;41981;-74
2021/03/29 01:40:42;;;;;;;4.27;2.10;;;;;;;8.43;52.87;100246.06;5092293;28;40750;-74
2021/03/29 01:43:11;;;;;;;3.93;2.00;;;;;;;8.40;52.61;100255.88;5092731;28;41434;-74
2021/03/29 01:45:40;;;;;;;4.57;2.27;;;;;;;8.36;52.83;100248.97;5110526;28;42817;-75
2021/03/29 01:48:09;;;;;;;3.60;2.10;;;;;;;8.34;53.09;100251.63;5093089;28;43285;-74
2021/03/29 01:50:39;;;;;;;4.63;2.40;;;;;;;8.29;54.73;100238.53;5092142;28;39769;-75
2021/03/29 01:53:08;;;;;;;3.70;1.77;;;;;;;8.28;54.41;100242.09;5093007;28;41942;-74
2021/03/29 01:55:37;;;;;;;6.03;3.00;;;;;;;8.25;54.07;100247.50;5076190;28;41783;-74
2021/03/29 01:58:06;;;;;;;4.77;2.33;;;;;;;8.25;53.63;100254.53;5111136;28;42298;-74
2021/03/29 02:00:37;;;;;;;3.90;1.80;;;;;;;8.22;53.71;100246.72;5092154;28;40627;-74
2021/03/29 02:03:05;;;;;;;4.23;2.10;;;;;;;8.21;54.32;100250.25;5110873;28;41549;-75
2021/03/29 02:05:33;;;;;;;3.73;1.73;;;;;;;8.14;54.11;100246.97;5076047;28;42671;-74
2021/03/29 02:08:01;;;;;;;6.03;1.97;;;;;;;8.12;54.33;100251.41;5092769;28;42974;-75
2021/03/29 02:10:32;;;;;;;3.67;2.80;;;;;;;8.07;54.31;100258.59;5092978;28;39061;-75
2021/03/29 02:13:02;;;;;;;4.73;2.00;;;;;;;8.02;54.75;100249.97;5076193;28;40483;-74
2021/03/29 02:15:30;;;;;;;4.27;2.13;;;;;;;7.90;54.74;100245.06;5109919;28;43540;-75
2021/03/29 02:18:00;;;;;;;5.00;2.23;;;;;;;7.89;54.39;100256.50;5076132;28;42760;-75
2021/03/29 02:20:29;;;;;;;3.07;2.07;;;;;;;7.86;54.39;100262.72;5091874;28;41559;-74
2021/03/29 02:22:57;;;;;;;7.73;2.20;;;;;;;7.80;54.14;100256.75;5092163;28;42191;-75
2021/03/29 02:25:27;;;;;;;3.73;1.97;;;;;;;7.76;55.08;100252.50;5092437;28;42686;-74
2021/03/29 02:27:55;;;;;;;5.53;2.07;;;;;;;7.70;54.79;100253.53;5110387;28;42959;-74
2021/03/29 02:30:26;;;;;;;5.03;2.37;;;;;;;7.68;55.02;100260.59;5092141;28;39876;-74
2021/03/29 02:32:54;;;;;;;3.37;2.27;;;;;;;7.63;54.79;100251.97;5094597;27;43285;-75
2021/03/29 02:35:25;;;;;;;2.57;2.03;;;;;;;7.64;54.91;100266.91;5113215;27;42601;-74
2021/03/29 02:37:55;;;;;;;3.27;2.30;;;;;;;7.62;54.98;100265.19;5112949;27;42350;-75
2021/03/29 02:40:24;;;;;;;4.60;2.13;;;;;;;7.61;55.07;100271.38;5103640;28;39623;-75
2021/03/29 02:42:55;;;;;;;7.70;2.10;;;;;;;7.51;55.73;100253.19;5109711;28;41518;-74
2021/03/29 02:45:24;;;;;;;4.70;2.00;;;;;;;7.56;55.24;100261.81;5091745;28;43728;-74
2021/03/29 02:47:55;;;;;;;6.13;2.87;;;;;;;7.54;55.85;100255.72;5091254;28;43084;-74
2021/03/29 02:50:25;;;;;;;4.63;1.80;;;;;;;7.53;55.66;100259.28;5092225;28;39135;-74
2021/03/29 02:52:54;;;;;;;5.50;2.00;;;;;;;7.52;55.35;100268.09;5075652;28;41875;-75
2021/03/29 02:55:23;;;;;;;4.17;2.27;;;;;;;7.50;55.56;100267.28;5092885;28;41802;-74
2021/03/29 02:57:53;;;;;;;2.83;2.20;;;;;;;7.49;55.22;100269.94;5079353;28;41465;-74
2021/03/29 03:00:22;;;;;;;3.63;2.53;;;;;;;7.46;55.13;100273.53;5078841;28;39875;-74
2021/03/29 03:02:51;;;;;;;5.70;2.50;;;;;;;7.32;57.08;100236.13;5112900;28;41568;-74
2021/03/29 03:05:20;;;;;;;5.07;2.47;;;;;;;7.38;56.23;100261.47;5112599;28;42497;-74
2021/03/29 03:07:48;;;;;;;3.60;1.70;;;;;;;7.38;56.40;100267.59;5095395;28;42175;-75
2021/03/29 03:10:16;;;;;;;4.20;2.30;;;;;;;7.35;56.32;100274.72;5094755;28;41600;-74
2021/03/29 03:12:44;;;;;;;6.17;2.30;;;;;;;7.32;55.99;100277.44;5094708;28;41730;-75
2021/03/29 03:15:15;;;;;;;5.20;2.63;;;;;;;7.27;56.81;100269.66;5095159;28;43541;-74
2021/03/29 03:17:42;;;;;;;4.13;2.10;;;;;;;7.23;56.58;100268.00;5095630;28;42397;-74
2021/03/29 03:20:11;;;;;;;4.33;2.10;;;;;;;7.20;56.14;100278.63;5079601;28;20249;-74
2021/03/29 03:22:52;;;;;;;4.53;2.37;;;;;;;7.12;56.54;100268.28;5112850;28;43078;-76
2021/03/29 03:25:35;;;;;;;3.00;2.07;;;;;;;7.11;57.24;100268.34;5080430;28;41832;-75
2021/03/29 03:28:05;;;;;;;5.10;1.77;;;;;;;7.06;56.66;100278.09;5092746;28;42650;-76
2021/03/29 03:30:35;;;;;;;7.40;2.60;;;;;;;7.00;57.42;100275.66;5075209;28;40169;-76
2021/03/29 03:33:04;;;;;;;8.63;2.73;;;;;;;6.96;56.89;100276.63;5098674;28;42024;-73
2021/03/29 03:35:33;;;;;;;5.43;2.50;;;;;;;6.92;56.70;100285.50;5094657;28;43353;-74
2021/03/29 03:38:06;;;;;;;2.70;1.77;;;;;;;6.85;56.87;100283.00;5113202;28;42256;-74
2021/03/29 03:40:35;;;;;;;3.07;1.97;;;;;;;6.68;56.71;100264.13;5094852;28;39938;-73
2021/03/29 03:43:05;;;;;;;2.33;1.83;;;;;;;6.73;57.56;100271.91;5112675;28;41788;-74
2021/03/29 03:45:35;;;;;;;3.77;2.23;;;;;;;6.67;58.05;100266.81;5112588;28;42745;-74
2021/03/29 03:48:03;;;;;;;5.37;2.10;;;;;;;6.53;58.25;100246.09;5112234;28;42029;-74
2021/03/29 03:50:31;;;;;;;4.17;2.50;;;;;;;6.59;59.23;100259.09;5112512;28;40663;-74
2021/03/29 03:52:59;;;;;;;3.93;2.07;;;;;;;6.57;58.53;100265.28;5112722;28;41697;-74
2021/03/29 03:55:28;;;;;;;6.47;2.67;;;;;;;6.52;58.18;100264.53;5078033;28;41752;-74
2021/03/29 03:57:56;;;;;;;4.13;1.90;;;;;;;6.48;58.07;100266.38;5112636;28;42580;-74
2021/03/29 04:00:25;;;;;;;3.87;2.13;;;;;;;6.42;58.00;100262.13;5112026;28;40896;-73
2021/03/29 04:02:53;;;;;;;3.90;2.30;;;;;;;6.40;58.19;100263.06;5112582;28;42120;-74
2021/03/29 04:05:20;;;;;;;5.03;2.07;;;;;;;6.29;58.20;100251.91;5093924;28;42813;-74
2021/03/29 04:07:49;;;;;;;2.73;2.10;;;;;;;6.35;58.26;100262.28;5112378;28;42728;-74
2021/03/29 04:10:19;;;;;;;4.17;2.00;;;;;;;6.33;58.23;100267.59;5093879;28;40235;-74
2021/03/29 04:12:53;;;;;;;3.90;2.40;;;;;;;6.30;58.49;100269.44;5093865;28;41735;-74
2021/03/29 04:15:21;;;;;;;4.90;2.40;;;;;;;6.22;58.33;100258.19;5112223;28;42804;-74
2021/03/29 04:17:49;;;;;;;4.87;2.20;;;;;;;6.25;58.37;100268.66;5076960;28;42409;-74
2021/03/29 04:20:17;;;;;;;4.23;2.20;;;;;;;6.23;58.15;100273.09;5111544;28;39601;-74
2021/03/29 04:22:44;;;;;;;6.33;2.80;;;;;;;6.19;58.47;100258.25;5077643;28;41130;-74
2021/03/29 04:25:15;;;;;;;3.83;2.30;;;;;;;6.17;58.51;100267.97;5111695;28;42641;-74
2021/03/29 04:27:42;;;;;;;5.30;2.67;;;;;;;5.97;58.81;100232.44;5093740;28;42432;-75
2021/03/29 04:30:13;;;;;;;3.53;2.20;;;;;;;6.12;59.21;100258.41;5112091;28;39677;-74
2021/03/29 04:32:40;;;;;;;4.97;2.30;;;;;;;6.16;59.01;100268.88;5111640;28;41166;-74
2021/03/29 04:35:09;;;;;;;5.57;2.90;;;;;;;6.12;59.32;100262.81;5093957;28;43319;-75
2021/03/29 04:37:36;;;;;;;5.27;2.77;;;;;;;6.08;58.95;100277.78;5112089;28;42986;-74
2021/03/29 04:40:04;;;;;;;4.93;2.73;;;;;;;6.04;58.93;100275.28;5093493;28;40306;-75
2021/03/29 04:42:32;;;;;;;7.50;2.60;;;;;;;6.00;59.09;100277.09;5094588;28;41636;-75
2021/03/29 04:44:59;;;;;;;5.47;2.70;;;;;;;5.91;59.31;100274.66;5092954;28;41638;-74
2021/03/29 04:47:27;;;;;;;3.77;2.67;;;;;;;5.93;59.26;100282.53;5094258;28;42145;-74
2021/03/29 04:49:55;;;;;;;3.53;2.17;;;;;;;5.89;59.17;100289.59;5111365;28;41794;-74
2021/03/29 04:52:22;;;;;;;5.53;2.33;;;;;;;5.88;59.19;100295.75;5094020;28;43124;-74
2021/03/29 04:54:49;;;;;;;7.30;2.40;;;;;;;5.86;59.00;100302.78;5094265;28;41752;-73
2021/03/29 04:57:16;;;;;;;6.67;2.60;;;;;;;5.84;59.09;100299.31;5111831;28;42318;-74
2021/03/29 04:59:43;;;;;;;5.40;2.10;;;;;;;5.83;58.83;100300.19;5093220;28;39909;-74
2021/03/29 05:02:10;;;;;;;2.90;2.10;;;;;;;5.81;58.97;100299.34;5111174;28;41573;-74
2021/03/29 05:04:38;;;;;;;4.80;2.80;;;;;;;5.87;58.97;100304.50;5093857;28;42771;-75
2021/03/29 05:07:09;;;;;;;3.77;2.70;;;;;;;5.89;59.14;100302.75;5093344;28;42274;-74
2021/03/29 05:09:36;;;;;;;3.53;2.70;;;;;;;5.92;58.95;100307.09;5093233;28;40188;-74
2021/03/29 05:12:09;;;;;;;5.63;2.17;;;;;;;5.96;59.05;100306.97;5093720;28;41645;-74
2021/03/29 05:14:36;;;;;;;4.47;2.63;;;;;;;6.01;59.13;100307.75;5092977;28;42650;-74
2021/03/29 05:17:04;;;;;;;3.83;2.43;;;;;;;6.00;59.09;100292.00;5094143;28;41294;-74
2021/03/29 05:19:31;;;;;;;4.57;2.90;;;;;;;6.20;58.66;100307.34;5092613;28;39246;-74
2021/03/29 05:21:59;;;;;;;4.03;2.63;;;;;;;6.27;58.73;100301.06;5093772;28;40738;-74
2021/03/29 05:24:26;;;;;;;4.77;2.73;;;;;;;6.44;59.09;100319.97;5093662;28;41816;-74
2021/03/29 05:26:53;;;;;;;4.03;2.70;;;;;;;6.57;58.87;100326.69;5111223;28;42967;-75
2021/03/29 05:29:27;;;;;;;4.23;2.63;;;;;;;6.62;58.28;100316.94;5092339;28;39973;-74
2021/03/29 05:31:54;;;;;;;4.47;3.03;;;;;;;6.69;57.86;100315.88;5093206;28;42142;-74
2021/03/29 05:34:21;;;;;;;4.00;2.67;;;;;;;6.89;58.22;100325.94;5110441;28;42324;-74
2021/03/29 05:36:49;;;;;;;6.13;2.70;;;;;;;6.73;58.06;100283.31;5111344;28;42757;-75
2021/03/29 05:39:17;;;;;;;3.87;2.77;;;;;;;7.08;58.29;100342.16;5111007;28;41672;-74
2021/03/29 05:41:44;;;;;;;3.87;2.67;;;;;;;7.19;57.77;100341.00;5111596;28;41324;-74
2021/03/29 05:44:12;;;;;;;4.93;3.00;;;;;;;7.26;57.66;100341.72;5092685;28;42481;-75
2021/03/29 05:46:40;;;;;;;6.37;2.80;;;;;;;7.37;57.20;100347.56;5092630;28;42186;-75
2021/03/29 05:49:08;;;;;;;5.90;2.83;;;;;;;7.48;56.96;100348.16;5093314;28;39991;-74
2021/03/29 05:51:36;;;;;;;6.20;2.60;;;;;;;7.56;56.81;100358.50;5110995;28;41978;-74
2021/03/29 05:54:03;;;;;;;4.50;2.40;;;;;;;7.66;56.61;100351.22;5093396;28;42058;-74
2021/03/29 05:56:33;;;;;;;4.63;2.70;;;;;;;7.75;56.60;100358.88;5111052;28;42047;-74
2021/03/29 05:59:10;;;;;;;4.67;2.10;;;;;;;7.86;56.43;100362.09;5110388;28;40385;-75
2021/03/29 06:01:45;;;;;;;3.33;2.30;;;;;;;7.97;56.16;100365.31;5092442;28;41508;-74
2021/03/29 06:04:13;;;;;;;5.47;3.07;;;;;;;8.10;56.47;100364.06;5109592;27;42726;-74
2021/03/29 06:06:40;;;;;;;4.50;2.70;;;;;;;8.25;56.29;100373.31;5110422;28;42120;-75
2021/03/29 06:09:09;;;;;;;5.43;2.47;;;;;;;8.40;55.85;100377.31;5092625;28;40009;-74
2021/03/29 06:11:38;;;;;;;4.30;2.43;;;;;;;8.56;55.57;100379.44;5092116;28;41854;-75
2021/03/29 06:14:11;;;;;;;5.13;2.50;;;;;;;8.72;55.64;100385.13;5092718;28;41934;-74
2021/03/29 06:16:56;;;;;;;3.77;2.30;;;;;;;8.85;55.79;100383.84;5110380;28;42150;-74
2021/03/29 06:19:38;;;;;;;4.60;2.40;;;;;;;8.89;55.65;100374.91;5108585;28;40545;-74
2021/03/29 06:22:08;;;;;;;4.97;2.63;;;;;;;9.13;55.49;100385.63;5091768;28;40609;-76
2021/03/29 06:24:54;;;;;;;2.73;2.30;;;;;;;9.30;55.25;100388.56;5106362;28;42980;-75
2021/03/29 06:27:24;;;;;;;5.90;2.83;;;;;;;9.41;55.29;100391.72;5085744;28;41273;-74
2021/03/29 06:30:09;;;;;;;5.90;2.67;;;;;;;9.51;55.07;100387.00;5105586;27;41590;-75
2021/03/29 06:32:37;;;;;;;7.37;3.50;;;;;;;9.72;55.27;100379.19;5088723;28;41577;-75
2021/03/29 06:35:15;;;;;;;5.33;2.90;;;;;;;9.93;55.48;100384.63;5087959;28;43470;-74
2021/03/29 06:37:43;;;;;;;5.63;2.97;;;;;;;10.09;55.18;100381.41;5106480;28;42488;-75
2021/03/29 06:40:11;;;;;;;7.53;3.53;;;;;;;10.23;55.45;100378.28;5105293;28;40624;-74
2021/03/29 06:42:39;;;;;;;7.57;3.63;;;;;;;10.38;55.33;100380.38;5089181;28;41642;-75
2021/03/29 06:45:14;;;;;;;6.47;3.17;;;;;;;10.49;54.96;100379.09;5106667;28;42421;-75
2021/03/29 06:47:41;;;;;;;4.97;3.20;;;;;;;10.66;54.75;100392.53;5105849;28;41966;-74
2021/03/29 06:50:21;;;;;;;9.03;3.23;;;;;;;10.80;54.39;100398.19;5088212;28;39753;-74
2021/03/29 06:52:49;;;;;;;6.63;3.67;;;;;;;10.91;54.06;100400.41;5088824;28;40760;-75
2021/03/29 06:55:17;;;;;;;8.53;3.83;;;;;;;10.97;54.00;100403.69;5087702;28;43341;-74
2021/03/29 06:57:46;;;;;;;5.63;3.17;;;;;;;10.98;53.55;100402.78;5072389;28;42264;-74
2021/03/29 07:00:14;;;;;;;6.53;3.30;;;;;;;10.95;53.54;100400.25;5106271;28;39756;-75
2021/03/29 07:02:43;;;;;;;6.20;3.60;;;;;;;10.98;53.50;100389.53;5088898;28;41229;-74
2021/03/29 07:05:12;;;;;;;7.00;3.57;;;;;;;11.27;53.13;100400.72;5087775;28;43265;-75
2021/03/29 07:07:46;;;;;;;4.23;3.30;;;;;;;11.63;52.46;100403.63;5106470;28;42966;-76
2021/03/29 07:10:13;;;;;;;8.03;3.63;;;;;;;12.23;51.30;100409.00;5087974;28;40707;-74
2021/03/29 07:12:43;;;;;;;6.87;3.70;;;;;;;13.26;49.10;100426.38;5087374;28;42309;-74
2021/03/29 07:15:13;;;;;;;8.00;3.70;;;;;;;14.31;46.50;100435.22;5071721;28;41752;-75
2021/03/29 07:17:42;;;;;;;8.10;3.80;;;;;;;15.18;45.53;100443.84;5105334;28;42528;-76
2021/03/29 07:20:11;;;;;;;7.53;3.77;;;;;;;15.92;44.00;100457.38;5088018;28;41190;-76
2021/03/29 07:22:39;;;;;;;8.30;3.93;;;;;;;16.50;42.83;100459.22;5106047;28;41437;-75
2021/03/29 07:25:09;;;;;;;7.60;3.70;;;;;;;17.40;41.42;100473.13;5088326;28;43033;-75
2021/03/29 07:27:43;;;;;;;6.60;4.27;;;;;;;18.42;39.49;100484.19;5102152;28;43103;-75
2021/03/29 07:30:15;;;;;;;6.33;3.90;;;;;;;18.99;37.28;100480.13;5071747;28;39123;-74
2021/03/29 07:32:52;;;;;;;7.27;3.50;;;;;;;19.34;35.85;100500.91;5087898;28;41643;-75
2021/03/29 07:35:21;;;;;;;5.93;3.77;;;;;;;19.48;35.67;100500.75;5087900;28;42809;-75
2021/03/29 07:37:57;;;;;;;5.57;2.77;;;;;;;19.56;34.75;100498.38;5087637;28;42068;-74
2021/03/29 07:40:47;;;;;;;4.53;2.70;;;;;;;19.67;33.52;100511.88;5104683;28;40004;-74
2021/03/29 07:43:17;;;;;;;6.93;2.93;;;;;;;19.56;34.21;100493.00;5091050;28;42048;-75
2021/03/29 07:45:51;;;;;;;4.20;3.07;;;;;;;19.67;33.80;100509.22;5091466;28;41749;-75
2021/03/29 07:48:35;;;;;;;6.20;2.77;;;;;;;19.71;33.45;100516.09;5109754;28;42908;-73
2021/03/29 07:51:03;;;;;;;8.60;3.13;;;;;;;19.66;33.14;100518.22;5109572;28;40623;-76
2021/03/29 07:53:43;;;;;;;5.57;2.60;;;;;;;19.52;33.06;100507.66;5109360;28;41566;-74
2021/03/29 07:56:12;;;;;;;5.67;2.63;;;;;;;19.42;33.36;100508.38;5091896;28;43405;-76
2021/03/29 07:58:46;;;;;;;8.43;3.60;;;;;;;19.29;34.17;100501.22;5091421;28;42306;-75
2021/03/29 08:01:16;;;;;;;6.13;3.27;;;;;;;19.22;33.98;100509.84;5108439;28;40426;-75
2021/03/29 08:04:01;;;;;;;6.63;3.50;;;;;;;19.35;34.31;100508.84;5087856;28;41760;-74
2021/03/29 08:06:42;;;;;;;8.93;2.90;;;;;;;19.64;33.78;100513.97;5107513;28;43145;-75
2021/03/29 08:09:18;;;;;;;5.87;2.93;;;;;;;19.91;33.01;100521.78;5090493;28;42584;-76
2021/03/29 08:12:06;;;;;;;6.80;3.10;;;;;;;20.22;32.13;100531.97;5110840;28;40410;-76
2021/03/29 08:14:42;;;;;;;7.57;3.10;;;;;;;20.55;31.96;100531.25;5106277;28;42380;-74
2021/03/29 08:17:47;;;;;;;6.00;2.70;;;;;;;21.22;31.26;100535.91;5107620;28;42187;-74
2021/03/29 08:20:34;;;;;;;6.43;2.70;;;;;;;21.98;30.37;100551.25;5106991;28;42516;-74
2021/03/29 08:23:31;;;;;;;7.17;3.13;;;;;;;22.95;28.60;100552.91;5122317;28;41287;-75
2021/03/29 08:26:09;;;;;;;8.83;3.03;;;;;;;23.44;27.56;100565.66;5103172;28;40620;-76
2021/03/29 08:29:10;;;;;;;4.57;2.60;;;;;;;23.83;27.34;100562.13;5107386;28;43082;-74
2021/03/29 08:32:16;;;;;;;6.47;2.77;;;;;;;24.21;26.76;100564.03;5099871;28;42705;-75
2021/03/29 08:34:54;;;;;;;5.57;2.60;;;;;;;24.65;25.45;100573.44;5089174;28;40341;-77
2021/03/29 08:37:24;;;;;;;5.30;3.03;;;;;;;25.50;25.26;100574.38;5107608;28;41793;-75
2021/03/29 08:39:54;;;;;;;5.70;2.63;;;;;;;26.38;24.23;100576.47;5108338;28;42639;-75
2021/03/29 08:42:24;;;;;;;6.90;2.77;;;;;;;26.85;23.14;100590.63;5108739;28;42723;-76
2021/03/29 08:44:52;;;;;;;7.20;2.77;;;;;;;27.26;22.44;100583.63;5106632;28;40004;-76
2021/03/29 08:47:21;;;;;;;5.57;2.03;;;;;;;28.24;21.88;100588.50;5074424;28;42182;-76
2021/03/29 08:49:54;;;;;;;5.07;2.10;;;;;;;28.99;20.62;100612.09;5110544;28;42559;-74
2021/03/29 08:52:22;;;;;;;5.73;2.50;;;;;;;29.34;20.75;100599.91;5111125;28;42501;-74
2021/03/29 08:54:53;;;;;;;4.23;2.40;;;;;;;30.16;19.26;100613.13;5092903;28;39692;-75
2021/03/29 08:57:26;;;;;;;4.37;2.53;;;;;;;31.25;18.28;100617.44;5112023;28;42347;-74
2021/03/29 08:59:57;;;;;;;6.07;3.30;;;;;;;32.96;17.18;100616.84;5093265;28;42496;-75
2021/03/29 09:02:25;;;;;;;5.60;2.53;;;;;;;33.70;16.25;100613.59;5093502;28;41921;-76
2021/03/29 09:04:56;;;;;;;4.13;2.57;;;;;;;32.91;16.15;100623.97;5111596;28;41671;-75
2021/03/29 09:07:32;;;;;;;5.60;2.80;;;;;;;32.98;16.21;100620.25;5077474;28;41581;-75
2021/03/29 09:10:00;;;;;;;6.33;2.63;;;;;;;33.97;15.44;100614.59;5092336;28;43470;-74
2021/03/29 09:12:30;;;;;;;5.07;2.95;;;;;;;34.52;15.25;100614.34;5111187;28;42111;-74
2021/03/29 09:14:59;;;;;;;5.23;2.70;;;;;;;34.92;14.81;100617.19;5077588;28;38806;-74
2021/03/29 09:17:31;;;;;;;3.13;2.13;;;;;;;35.73;13.93;100609.47;5094269;28;40942;-75
2021/03/29 09:20:01;;;;;;;5.65;2.63;;;;;;;36.67;13.54;100612.41;5092676;28;42761;-74
2021/03/29 09:22:34;;;;;;;3.65;2.15;;;;;;;37.28;13.06;100617.28;5111586;28;41912;-74
2021/03/29 09:25:04;;;;;;;4.63;2.70;;;;;;;36.59;13.45;100612.69;5111279;28;39887;-74
2021/03/29 09:27:43;;;;;;;5.07;2.60;;;;;;;35.95;14.08;100599.88;5110888;28;42456;-75
2021/03/29 09:30:12;;;;;;;5.10;2.70;;;;;;;35.11;14.38;100597.06;5110901;28;42577;-73
2021/03/29 09:32:41;;;;;;;4.10;2.50;;;;;;;34.89;14.83;100582.66;5092728;28;41917;-75
2021/03/29 09:35:11;;;;;;;7.13;2.90;;;;;;;35.48;13.96;100583.69;5093064;28;39195;-76
2021/03/29 09:37:47;;;;;;;4.47;2.65;;;;;;;36.07;13.72;100590.91;5110530;28;41805;-76
2021/03/29 09:40:17;;;;;;;4.63;2.40;;;;;;;35.54;13.71;100585.56;5091145;28;43241;-76
2021/03/29 09:42:47;;;;;;;5.80;3.00;;;;;;;35.70;13.72;100592.50;5090285;28;42958;-75
2021/03/29 09:45:21;;;;;;;5.63;2.90;;;;;;;35.08;14.30;100596.66;5090245;28;39021;-76
2021/03/29 09:47:59;;;;;;;3.90;2.23;;;;;;;34.32;14.46;100594.22;5090636;28;41976;-75
2021/03/29 09:50:32;;;;;;;6.73;2.57;;;;;;;33.88;15.11;100586.41;5107594;28;42406;-77
2021/03/29 09:53:12;;;;;;;3.87;2.10;;;;;;;34.11;14.65;100589.69;5090049;28;42017;-75
2021/03/29 09:55:50;;;;;;;4.37;2.20;;;;;;;34.58;14.79;100588.78;5108116;28;41063;-76
2021/03/29 09:58:19;;;;;;;5.07;2.80;;;;;;;34.91;14.37;100591.56;5092840;28;42462;-76
2021/03/29 10:00:46;;;;;;;5.53;2.20;;;;;;;35.13;14.05;100599.59;5093563;28;42782;-75
2021/03/29 10:03:16;;;;;;;3.13;2.53;;;;;;;35.01;14.36;100596.63;5111067;28;42908;-75
2021/03/29 10:05:46;;;;;;;4.70;2.20;;;;;;;35.47;13.55;100590.25;5110435;27;39405;-76
2021/03/29 10:08:24;;;;;;;4.07;2.13;;;;;;;35.96;13.58;100601.56;5092820;28;42176;-76
2021/03/29 10:10:59;;;;;;;3.13;2.20;;;;;;;36.48;13.42;100587.69;5092624;28;43230;-75
2021/03/29 10:13:32;;;;;;;5.15;2.50;;;;;;;36.27;13.17;100591.66;5076637;28;41338;-76
2021/03/29 10:16:21;;;;;;;4.40;2.50;;;;;;;35.67;13.89;100585.53;5109647;28;39614;-76
2021/03/29 10:19:02;;;;;;;4.20;2.30;;;;;;;34.45;14.71;100590.66;5092920;28;42515;-75
2021/03/29 10:21:31;;;;;;;3.73;2.20;;;;;;;33.61;15.32;100571.69;5111782;28;42425;-75
2021/03/29 10:24:11;;;;;;;3.47;1.90;;;;;;;32.70;15.75;100572.69;5092180;28;42105;-75
2021/03/29 10:26:39;;;;;;;3.80;2.00;;;;;;;31.87;16.01;100570.50;5110757;28;40740;-75
2021/03/29 10:29:07;;;;;;;4.70;2.00;;;;;;;31.53;16.67;100566.44;5110237;28;41964;-75
2021/03/29 10:31:37;;;;;;;4.80;2.10;;;;;;;32.01;16.31;100566.88;5076118;28;42788;-75
2021/03/29 10:34:04;;;;;;;5.60;2.50;;;;;;;33.38;15.80;100554.66;5093026;28;41417;-75
2021/03/29 10:36:32;;;;;;;2.83;1.87;;;;;;;34.75;14.56;100563.56;5092944;28;40630;-75
2021/03/29 10:38:59;;;;;;;3.83;2.13;;;;;;;36.10;14.13;100551.84;5110401;28;42243;-75
2021/03/29 10:41:26;;;;;;;4.13;2.08;;;;;;;37.80;12.94;100573.53;5109099;28;42684;-75
2021/03/29 10:43:53;;;;;;;4.78;2.35;;;;;;;38.80;11.91;100580.22;5091988;28;42076;-76
2021/03/29 10:46:20;;;;;;;4.95;2.35;;;;;;;39.49;12.07;100575.78;5110077;28;41685;-76
2021/03/29 10:48:48;;;;;;;4.82;2.10;;;;;;;40.50;11.04;100567.88;5092314;28;41802;-76
2021/03/29 10:51:15;;;;;;;4.30;1.90;;;;;;;41.74;10.00;100587.94;5109770;28;43253;-76
2021/03/29 10:53:43;;;;;;;4.38;1.95;;;;;;;42.55;9.37;100588.03;5092866;28;42475;-75
2021/03/29 10:56:10;;;;;;;5.60;1.60;;;;;;;43.02;9.19;100591.00;5072372;28;39018;-76
2021/03/29 10:58:37;;;;;;;3.38;1.60;;;;;;;43.33;8.71;100589.25;5090081;28;42114;-75
2021/03/29 11:01:04;;;;;;;3.88;1.75;;;;;;;43.82;8.49;100587.03;5090575;28;43631;-75
2021/03/29 11:03:31;;;;;;;2.42;1.60;;;;;;;44.22;8.46;100579.91;5092323;28;43047;-76
2021/03/29 11:05:58;;;;;;;3.00;1.70;;;;;;;44.31;8.16;100573.50;5110023;28;40531;-76
2021/03/29 11:08:25;;;;;;;3.17;1.95;;;;;;;43.85;8.44;100568.88;5109732;28;42527;-75
2021/03/29 11:10:53;;;;;;;3.70;1.60;;;;;;;43.67;8.43;100579.41;5091337;28;43408;-76
2021/03/29 11:13:20;;;;;;;2.92;1.80;;;;;;;43.38;8.43;100575.34;5110066;28;43193;-76
2021/03/29 11:15:47;;;;;;;4.28;2.10;;;;;;;42.76;8.60;100584.34;5075900;28;39230;-75
2021/03/29 11:18:14;;;;;;;3.42;2.00;;;;;;;42.71;8.46;100581.50;5095076;28;42242;-76
2021/03/29 11:20:41;;;;;;;3.97;1.95;;;;;;;43.09;8.64;100582.38;5112251;28;43464;-75
2021/03/29 11:23:08;;;;;;;2.03;1.50;;;;;;;43.57;7.84;100584.97;5113595;28;42189;-76
2021/03/29 11:25:35;;;;;;;3.08;1.77;;;;;;;43.77;7.90;100583.38;5095049;28;40418;-75
2021/03/29 11:28:04;;;;;;;3.58;1.90;;;;;;;44.14;7.88;100567.34;5096171;28;41050;-76
2021/03/29 11:30:31;;;;;;;5.38;1.90;;;;;;;44.50;7.47;100575.81;5095624;28;41387;-76
2021/03/29 11:32:59;;;;;;;3.55;1.90;;;;;;;44.99;7.11;100574.16;5113378;28;42058;-77
2021/03/29 11:35:26;;;;;;;2.92;1.80;;;;;;;45.01;7.33;100569.06;5113281;28;41681;-76
2021/03/29 11:37:52;;;;;;;2.80;1.50;;;;;;;44.65;7.17;100557.06;5113407;28;42496;-76
2021/03/29 11:40:19;;;;;;;2.15;1.80;;;;;;;43.53;7.93;100567.03;5113109;28;43230;-75
2021/03/29 11:42:46;;;;;;;2.08;1.63;;;;;;;42.24;9.02;100562.66;5095669;28;42205;-75
2021/03/29 11:45:15;;;;;;;3.05;1.85;;;;;;;41.88;9.04;100544.69;5094799;28;40456;-75
2021/03/29 11:47:42;;;;;;;2.38;1.52;;;;;;;42.89;8.54;100550.47;5112730;28;41503;-76